Time;durP1;ratioP1;P1;durP2;ratioP2;P2;SDS_P1;SDS_P2;PMS_P1;PMS_P2;Temp;Humidity;BMP_temperature;BMP_pressure;BME280_temperature;BME280_humidity;BME280_pressure;Samples;Min_cycle;Max_cycle;Signal;HPM_P1;HPM_P2
2023/06/02 00:01:00;;;;;;;3.92;1.77;;;;;;;12.17;59.27;102068.06;5032332;28;20224;-77
2023/06/02 00:03:29;;;;;;;3.13;1.70;;;;;;;12.14;59.33;102070.69;5030903;28;20095;-77
2023/06/02 00:05:55;;;;;;;3.92;1.80;;;;;;;12.14;59.38;102075.91;5031356;28;20173;-77
2023/06/02 00:08:20;;;;;;;5.72;2.13;;;;;;;12.14;59.38;102071.56;5034383;28;20132;-77
2023/06/02 00:10:46;;;;;;;4.60;1.92;;;;;;;12.14;59.59;102063.75;5031917;28;20017;-77
2023/06/02 00:13:11;;;;;;;4.70;1.88;;;;;;;12.16;58.71;102063.72;5031800;28;20025;-77
2023/06/02 00:15:37;;;;;;;4.15;1.90;;;;;;;12.16;59.30;102068.94;5030971;28;20029;-77
2023/06/02 00:18:02;;;;;;;5.05;1.80;;;;;;;12.16;59.18;102061.13;5032037;28;20418;-77
2023/06/02 00:20:28;;;;;;;4.45;2.10;;;;;;;12.14;58.66;102062.88;5030643;28;20041;-77
2023/06/02 00:22:54;;;;;;;4.10;1.80;;;;;;;12.12;58.97;102069.88;5030962;28;20040;-77
2023/06/02 00:25:19;;;;;;;5.80;2.00;;;;;;;12.12;59.08;102064.66;5031411;28;20017;-77
2023/06/02 00:27:44;;;;;;;3.75;1.90;;;;;;;12.10;58.14;102061.22;5032126;28;20480;-77
2023/06/02 00:30:10;;;;;;;4.93;1.83;;;;;;;12.10;58.46;102063.81;5031755;28;20424;-77
2023/06/02 00:32:36;;;;;;;6.82;2.17;;;;;;;12.08;58.19;102063.81;5031633;28;20108;-77
2023/06/02 00:35:01;;;;;;;4.22;1.85;;;;;;;12.06;58.67;102069.94;5032214;28;20028;-77
2023/06/02 00:37:26;;;;;;;4.50;1.92;;;;;;;12.06;58.93;102064.72;5031405;28;20033;-77
2023/06/02 00:39:51;;;;;;;6.35;1.42;;;;;;;12.05;58.54;102060.41;5031860;28;20029;-77
2023/06/02 00:42:17;;;;;;;4.03;1.63;;;;;;;12.03;58.41;102057.81;5032213;28;20071;-77
2023/06/02 00:44:43;;;;;;;4.55;1.60;;;;;;;12.02;58.47;102065.63;5032034;28;20456;-77
2023/06/02 00:47:09;;;;;;;6.15;1.65;;;;;;;11.95;58.06;102059.59;5031819;28;20040;-77
2023/06/02 00:49:34;;;;;;;3.90;1.50;;;;;;;11.91;58.34;102056.19;5032234;28;20030;-77
2023/06/02 00:52:01;;;;;;;5.78;1.80;;;;;;;11.89;57.97;102057.06;5031018;28;20481;-77
2023/06/02 00:54:26;;;;;;;5.05;1.67;;;;;;;11.84;58.72;102050.19;5031745;28;20409;-77
2023/06/02 00:56:54;;;;;;;5.50;1.80;;;;;;;11.82;58.06;102062.38;5031924;28;20487;-77
2023/06/02 00:59:22;;;;;;;5.60;1.70;;;;;;;11.76;57.75;102056.34;5032167;28;20025;-77
2023/06/02 01:01:48;;;;;;;6.18;1.95;;;;;;;11.70;58.18;102057.25;5029889;28;20029;-77
2023/06/02 01:04:15;;;;;;;7.15;1.75;;;;;;;11.68;58.52;102059.91;5030058;28;20025;-77
2023/06/02 01:06:41;;;;;;;5.40;1.52;;;;;;;11.68;58.50;102062.50;5029117;28;20021;-77
2023/06/02 01:09:10;;;;;;;4.70;1.65;;;;;;;11.69;58.66;102061.63;5031325;28;20112;-77
2023/06/02 01:11:35;;;;;;;6.38;1.67;;;;;;;11.71;58.20;102064.22;5030896;28;20075;-77
2023/06/02 01:14:01;;;;;;;5.82;2.20;;;;;;;11.71;58.56;102066.81;5031403;28;20030;-77
2023/06/02 01:16:27;;;;;;;7.32;1.75;;;;;;;11.73;58.32;102062.44;5029644;28;20032;-77
2023/06/02 01:18:52;;;;;;;6.85;1.55;;;;;;;11.75;58.43;102065.91;5031656;28;20435;-77
2023/06/02 01:21:23;;;;;;;6.72;1.65;;;;;;;11.76;58.63;102064.19;5029785;28;20041;-77
2023/06/02 01:23:51;;;;;;;8.73;2.42;;;;;;;11.77;58.44;102068.53;5031515;28;20147;-77
2023/06/02 01:26:16;;;;;;;5.82;1.90;;;;;;;11.77;58.60;102063.31;5030858;28;20025;-77
2023/06/02 01:28:42;;;;;;;4.97;1.58;;;;;;;11.80;58.36;102058.03;5031648;28;20042;-77
2023/06/02 01:31:16;;;;;;;6.00;1.60;;;;;;;11.82;58.78;102061.47;5030495;28;20467;-77
2023/06/02 01:34:07;;;;;;;6.90;1.65;;;;;;;11.79;57.87;102054.56;5031679;28;20076;-77
2023/06/02 01:36:36;;;;;;;5.15;1.58;;;;;;;11.73;58.77;102057.22;5030952;28;20473;-77
2023/06/02 01:39:03;;;;;;;5.50;1.70;;;;;;;11.69;58.62;102053.81;5030998;28;20025;-77
2023/06/02 01:41:32;;;;;;;7.60;1.60;;;;;;;11.68;58.19;102053.84;5029995;28;20029;-77
2023/06/02 01:43:57;;;;;;;6.85;1.85;;;;;;;11.64;58.25;102047.78;5031266;28;20117;-77
2023/06/02 01:46:24;;;;;;;4.97;1.48;;;;;;;11.63;58.75;102056.47;5031097;28;20104;-77
2023/06/02 01:48:53;;;;;;;5.90;1.52;;;;;;;11.66;58.51;102053.84;5034184;28;20112;-77
2023/06/02 01:51:19;;;;;;;6.93;1.60;;;;;;;11.65;58.52;102052.09;5034695;28;20094;-77
2023/06/02 01:53:44;;;;;;;7.15;1.60;;;;;;;11.65;58.79;102048.66;5033632;28;20420;-77
2023/06/02 01:56:10;;;;;;;6.15;1.80;;;;;;;11.66;58.58;102046.00;5033829;28;20021;-77
2023/06/02 01:58:36;;;;;;;5.85;1.75;;;;;;;11.67;58.72;102050.34;5033621;28;20033;-77
2023/06/02 02:01:02;;;;;;;5.72;1.60;;;;;;;11.68;58.54;102044.25;5033421;28;20025;-77
2023/06/02 02:03:29;;;;;;;5.65;1.50;;;;;;;11.69;58.62;102046.00;5033086;28;20179;-77
2023/06/02 02:05:54;;;;;;;4.47;1.83;;;;;;;11.69;58.79;102050.34;5033628;28;20045;-77
2023/06/02 02:08:19;;;;;;;7.50;1.60;;;;;;;11.67;58.83;102045.13;5030750;28;20060;-77
2023/06/02 02:10:44;;;;;;;7.43;1.65;;;;;;;11.68;58.88;102044.25;5025998;28;20017;-77
2023/06/02 02:13:10;;;;;;;5.85;1.90;;;;;;;11.71;59.16;102048.56;5033895;28;20022;-77
2023/06/02 02:15:35;;;;;;;5.68;1.65;;;;;;;11.74;59.75;102053.75;5032726;28;20079;-77
2023/06/02 02:18:00;;;;;;;8.52;1.88;;;;;;;11.74;59.00;102050.28;5032559;28;20033;-77
2023/06/02 02:20:26;;;;;;;6.40;1.63;;;;;;;11.72;59.06;102052.91;5028738;28;20025;-77
2023/06/02 02:22:51;;;;;;;4.97;1.50;;;;;;;11.71;59.32;102055.53;5028238;28;20037;-77
2023/06/02 02:25:16;;;;;;;4.63;1.90;;;;;;;11.68;59.36;102054.69;5033008;28;20029;-77
2023/06/02 02:27:42;;;;;;;6.40;1.90;;;;;;;11.65;59.42;102052.09;5033465;28;20441;-77
2023/06/02 02:30:08;;;;;;;6.10;1.90;;;;;;;11.66;59.44;102048.63;5032381;28;20029;-77
2023/06/02 02:32:35;;;;;;;7.00;1.77;;;;;;;11.66;59.44;102046.00;5032888;28;20033;-77
2023/06/02 02:35:01;;;;;;;6.18;2.00;;;;;;;11.68;59.54;102048.63;5031549;28;20067;-77
2023/06/02 02:37:30;;;;;;;6.18;2.10;;;;;;;11.68;59.05;102049.47;5032127;28;20390;-77
2023/06/02 02:39:55;;;;;;;5.85;1.80;;;;;;;11.67;59.65;102055.56;5031716;28;20112;-77
2023/06/02 02:42:21;;;;;;;6.03;1.80;;;;;;;11.67;59.36;102058.16;5032131;28;20120;-77
2023/06/02 02:44:46;;;;;;;9.18;2.03;;;;;;;11.69;59.27;102050.34;5032844;28;20025;-77
2023/06/02 02:47:12;;;;;;;5.35;1.60;;;;;;;11.68;59.25;102053.84;5032768;28;20022;-77
2023/06/02 02:49:37;;;;;;;6.47;1.77;;;;;;;11.67;59.33;102046.91;5031700;28;20061;-77
2023/06/02 02:52:03;;;;;;;7.28;2.00;;;;;;;11.68;59.51;102049.47;5032998;28;20316;-77
2023/06/02 02:54:29;;;;;;;5.90;1.80;;;;;;;11.67;59.61;102052.97;5032659;28;20042;-77
2023/06/02 02:56:54;;;;;;;6.80;2.10;;;;;;;11.68;59.35;102041.66;5032838;28;20029;-77
2023/06/02 02:59:20;;;;;;;5.20;1.67;;;;;;;11.68;59.21;102049.47;5031947;28;20025;-77
2023/06/02 03:01:46;;;;;;;4.88;1.67;;;;;;;11.69;59.62;102045.13;5031508;28;20377;-77
2023/06/02 03:04:13;;;;;;;6.97;1.88;;;;;;;11.67;59.48;102047.75;5033084;28;20113;-77
2023/06/02 03:06:40;;;;;;;6.00;1.95;;;;;;;11.66;59.96;102048.63;5033709;28;20047;-77
2023/06/02 03:09:08;;;;;;;5.60;1.80;;;;;;;11.65;60.18;102048.66;5032976;28;20025;-77
2023/06/02 03:11:33;;;;;;;7.38;1.83;;;;;;;11.62;60.37;102049.53;5032568;28;20029;-77
2023/06/02 03:13:58;;;;;;;6.65;2.20;;;;;;;11.58;59.99;102053.06;5033628;28;20025;-77
2023/06/02 03:16:23;;;;;;;9.77;1.90;;;;;;;11.57;60.03;102061.75;5033306;28;20028;-77
2023/06/02 03:18:49;;;;;;;5.95;1.90;;;;;;;11.55;59.12;102063.53;5032973;28;20477;-77
2023/06/02 03:21:14;;;;;;;8.73;2.17;;;;;;;11.49;59.17;102063.56;5032660;28;20025;-77
2023/06/02 03:23:40;;;;;;;7.07;1.85;;;;;;;11.47;58.86;102067.94;5030883;28;20025;-77
2023/06/02 03:26:06;;;;;;;7.20;1.70;;;;;;;11.43;59.15;102063.66;5031719;28;20496;-77
2023/06/02 03:28:31;;;;;;;4.88;1.90;;;;;;;11.43;59.14;102074.06;5030796;28;20028;-77
2023/06/02 03:30:56;;;;;;;7.38;1.90;;;;;;;11.39;58.91;102061.06;5029783;28;20029;-77
2023/06/02 03:33:22;;;;;;;5.72;1.90;;;;;;;11.40;58.72;102067.13;5033361;28;20053;-77
2023/06/02 03:35:48;;;;;;;4.35;1.70;;;;;;;11.38;58.87;102064.56;5033351;28;20029;-77
2023/06/02 03:38:13;;;;;;;4.68;1.60;;;;;;;11.37;58.87;102064.56;5032650;28;20438;-77
2023/06/02 03:40:38;;;;;;;6.57;1.75;;;;;;;11.38;59.27;102066.28;5032105;28;20025;-77
2023/06/02 03:43:04;;;;;;;7.18;2.25;;;;;;;11.39;59.16;102068.00;5032953;28;20048;-77
2023/06/02 03:45:30;;;;;;;4.55;1.80;;;;;;;11.40;59.17;102064.53;5032852;28;20032;-77
2023/06/02 03:47:55;;;;;;;5.57;1.80;;;;;;;11.38;58.85;102067.16;5032300;28;20028;-77
2023/06/02 03:50:21;;;;;;;9.63;2.03;;;;;;;11.38;58.94;102069.75;5031847;28;20017;-77
2023/06/02 03:52:46;;;;;;;4.45;1.80;;;;;;;11.38;59.49;102061.94;5031778;28;20115;-77
2023/06/02 03:55:11;;;;;;;5.72;1.92;;;;;;;11.39;59.33;102065.41;5032747;28;20030;-77
2023/06/02 03:57:37;;;;;;;5.15;1.70;;;;;;;11.39;59.16;102068.00;5032631;28;20032;-77
2023/06/02 04:00:04;;;;;;;6.75;1.90;;;;;;;11.37;59.35;102064.56;5032196;28;20028;-77
2023/06/02 04:02:29;;;;;;;5.40;1.95;;;;;;;11.36;59.58;102068.91;5032962;28;20033;-77
2023/06/02 04:04:55;;;;;;;5.95;1.85;;;;;;;11.35;59.44;102071.53;5032484;28;20104;-77
2023/06/02 04:07:21;;;;;;;6.43;1.77;;;;;;;11.33;59.49;102079.34;5032937;28;20053;-77
2023/06/02 04:09:46;;;;;;;6.30;1.83;;;;;;;11.32;59.64;102082.84;5031975;28;20075;-77
2023/06/02 04:12:11;;;;;;;6.97;2.00;;;;;;;11.34;59.56;102090.66;5031691;28;20044;-77
2023/06/02 04:14:37;;;;;;;6.50;2.03;;;;;;;11.33;59.58;102087.16;5032302;28;20040;-77
2023/06/02 04:17:03;;;;;;;8.00;1.80;;;;;;;11.31;59.23;102083.72;5032408;28;20512;-77
2023/06/02 04:19:28;;;;;;;4.38;1.63;;;;;;;11.30;59.00;102089.78;5028759;28;20523;-77
2023/06/02 04:21:53;;;;;;;3.85;1.73;;;;;;;11.27;59.47;102094.19;5031864;28;20057;-77
2023/06/02 04:24:18;;;;;;;5.60;1.58;;;;;;;11.28;59.84;102085.50;5031349;28;20080;-77
2023/06/02 04:26:45;;;;;;;5.97;1.77;;;;;;;11.29;59.47;102084.63;5032356;28;20029;-77
2023/06/02 04:29:11;;;;;;;4.45;1.70;;;;;;;11.29;60.05;102082.84;5031255;28;20116;-77
2023/06/02 04:31:40;;;;;;;5.60;1.77;;;;;;;11.29;60.15;102082.84;5030892;28;20512;-77
2023/06/02 04:34:06;;;;;;;4.95;1.50;;;;;;;11.30;59.70;102078.53;5031421;28;20052;-77
2023/06/02 04:36:31;;;;;;;5.40;1.73;;;;;;;11.28;59.43;102075.06;5031797;28;20497;-77
2023/06/02 04:38:57;;;;;;;4.78;1.55;;;;;;;11.24;59.44;102080.28;5031595;28;20064;-77
2023/06/02 04:41:22;;;;;;;5.13;1.40;;;;;;;11.25;59.68;102081.19;5034305;28;20100;-77
2023/06/02 04:43:48;;;;;;;5.00;1.85;;;;;;;11.19;58.91;102083.81;5031742;28;20392;-77
2023/06/02 04:46:13;;;;;;;3.47;1.30;;;;;;;11.15;58.93;102076.91;5032439;28;20461;-77
2023/06/02 04:48:42;;;;;;;4.43;1.55;;;;;;;11.14;59.94;102083.00;5030589;28;20103;-78
2023/06/02 04:51:07;;;;;;;5.93;1.50;;;;;;;11.16;59.30;102081.25;5030660;28;20324;-77
2023/06/02 04:53:32;;;;;;;4.35;1.60;;;;;;;11.15;59.45;102089.94;5030646;28;20105;-77
2023/06/02 04:55:58;;;;;;;5.35;1.63;;;;;;;11.16;59.35;102086.44;5031228;28;20036;-77
2023/06/02 04:58:24;;;;;;;5.97;1.73;;;;;;;11.16;59.49;102091.66;5031011;28;20091;-77
2023/06/02 05:00:49;;;;;;;4.78;1.58;;;;;;;11.16;58.96;102089.06;5029618;28;20092;-77
2023/06/02 05:03:14;;;;;;;5.40;1.50;;;;;;;11.17;59.34;102091.66;5030509;28;20104;-77
2023/06/02 05:05:40;;;;;;;6.78;1.40;;;;;;;11.17;59.63;102093.38;5031035;28;20026;-77
2023/06/02 05:08:06;;;;;;;5.22;1.50;;;;;;;11.19;59.29;102091.63;5031071;28;20053;-77
2023/06/02 05:10:31;;;;;;;3.72;1.20;;;;;;;11.19;59.32;102091.63;5030922;28;20022;-77
2023/06/02 05:12:56;;;;;;;3.58;1.30;;;;;;;11.20;59.80;102102.03;5030804;28;20021;-77
2023/06/02 05:15:21;;;;;;;4.07;1.27;;;;;;;11.22;59.73;102105.50;5031095;28;20424;-77
2023/06/02 05:17:47;;;;;;;3.83;1.45;;;;;;;11.20;59.71;102102.03;5030852;28;20044;-77
2023/06/02 05:20:13;;;;;;;5.07;1.33;;;;;;;11.19;59.70;102104.66;5031805;28;20469;-77
2023/06/02 05:22:38;;;;;;;3.22;1.23;;;;;;;11.17;60.05;102104.69;5032847;28;20033;-77
2023/06/02 05:25:04;;;;;;;5.18;1.50;;;;;;;11.18;59.82;102105.53;5036773;28;20110;-77
2023/06/02 05:27:30;;;;;;;5.55;1.80;;;;;;;11.16;59.90;102102.97;5037893;28;20108;-77
2023/06/02 05:29:55;;;;;;;4.90;1.40;;;;;;;11.15;59.62;102102.94;5038374;28;20468;-77
2023/06/02 05:32:24;;;;;;;4.97;1.40;;;;;;;11.17;59.75;102102.09;5039223;28;20032;-77
2023/06/02 05:34:49;;;;;;;5.32;1.38;;;;;;;11.20;59.75;102102.03;5035888;28;20047;-77
2023/06/02 05:37:14;;;;;;;6.65;1.50;;;;;;;11.20;59.30;102102.03;5038162;28;20490;-77
2023/06/02 05:39:41;;;;;;;6.45;1.60;;;;;;;11.19;59.77;102107.25;5037580;28;20033;-77
2023/06/02 05:42:07;;;;;;;5.47;1.40;;;;;;;11.19;59.62;102105.50;5035818;28;20075;-77
2023/06/02 05:44:32;;;;;;;4.20;1.48;;;;;;;11.22;58.98;102099.44;5037454;28;20416;-77
2023/06/02 05:46:57;;;;;;;5.85;1.42;;;;;;;11.22;59.85;102107.25;5032093;28;20026;-77
2023/06/02 05:49:23;;;;;;;5.13;1.50;;;;;;;11.24;59.89;102105.50;5035515;28;20477;-77
2023/06/02 05:51:48;;;;;;;5.13;1.42;;;;;;;11.24;59.73;102100.28;5035655;28;20037;-77
2023/06/02 05:54:13;;;;;;;7.07;2.00;;;;;;;11.24;60.56;102101.13;5035840;28;20049;-77
2023/06/02 05:56:39;;;;;;;6.47;1.67;;;;;;;11.25;60.13;102109.84;5037712;28;20024;-77
2023/06/02 05:59:05;;;;;;;6.20;1.50;;;;;;;11.22;59.66;102113.31;5037947;28;20029;-77
2023/06/02 06:01:30;;;;;;;4.68;1.52;;;;;;;11.17;59.29;102111.63;5038147;28;20025;-77
2023/06/02 06:03:55;;;;;;;7.47;1.30;;;;;;;11.16;59.86;102107.28;5037217;28;20032;-77
2023/06/02 06:06:21;;;;;;;6.85;1.50;;;;;;;11.17;59.98;102109.91;5037804;28;20067;-77
2023/06/02 06:08:46;;;;;;;5.45;1.52;;;;;;;11.20;60.11;102106.38;5036348;28;20025;-77
2023/06/02 06:11:12;;;;;;;8.82;1.45;;;;;;;11.19;59.51;102104.66;5037686;28;20087;-77
2023/06/02 06:13:37;;;;;;;6.03;1.60;;;;;;;11.15;59.41;102105.56;5037189;28;20063;-77
2023/06/02 06:16:03;;;;;;;3.88;1.35;;;;;;;11.13;59.80;102104.69;5036797;28;20112;-77
2023/06/02 06:18:28;;;;;;;6.93;1.60;;;;;;;11.14;59.93;102109.91;5035323;28;20108;-77
2023/06/02 06:20:53;;;;;;;5.80;1.50;;;;;;;11.19;59.80;102107.25;5036953;28;20041;-77
2023/06/02 06:23:19;;;;;;;3.33;1.00;;;;;;;11.18;59.05;102109.03;5037087;28;20052;-77
2023/06/02 06:25:44;;;;;;;7.18;1.55;;;;;;;11.18;58.57;102108.13;5036665;28;20037;-77
2023/06/02 06:28:09;;;;;;;7.25;1.50;;;;;;;11.20;58.56;102109.00;5035511;28;20048;-77
2023/06/02 06:30:35;;;;;;;7.32;1.50;;;;;;;11.20;58.71;102109.00;5036833;28;20056;-77
2023/06/02 06:33:00;;;;;;;6.80;1.30;;;;;;;11.23;59.50;102114.19;5035107;28;20400;-77
2023/06/02 06:35:26;;;;;;;5.70;1.35;;;;;;;11.26;58.73;102113.28;5033609;28;20028;-77
2023/06/02 06:37:51;;;;;;;9.60;1.50;;;;;;;11.31;59.33;102112.38;5033731;28;20056;-77
2023/06/02 06:40:16;;;;;;;6.20;1.67;;;;;;;11.38;60.08;102116.66;5030391;28;20037;-78
2023/06/02 06:42:42;;;;;;;4.53;1.10;;;;;;;11.47;58.93;102113.13;5032186;28;20027;-77
2023/06/02 06:45:07;;;;;;;8.35;1.90;;;;;;;11.48;57.56;102119.19;5033719;28;20469;-77
2023/06/02 06:47:33;;;;;;;4.07;1.65;;;;;;;11.45;58.04;102119.19;5032312;28;20021;-77
2023/06/02 06:49:58;;;;;;;5.97;1.50;;;;;;;11.45;58.31;102124.41;5032380;28;20057;-77
2023/06/02 06:52:25;;;;;;;5.70;1.90;;;;;;;11.49;58.73;102120.91;5028275;28;20056;-78
2023/06/02 06:54:50;;;;;;;6.40;1.30;;;;;;;11.56;59.15;102119.97;5034203;28;20025;-78
2023/06/02 06:57:15;;;;;;;5.82;1.60;;;;;;;11.65;58.89;102111.22;5028201;28;20040;-77
2023/06/02 06:59:42;;;;;;;5.05;1.38;;;;;;;11.69;58.27;102108.56;5029653;28;20034;-77
2023/06/02 07:02:07;;;;;;;3.53;1.50;;;;;;;11.75;59.34;102106.78;5027763;28;20029;-77
2023/06/02 07:04:32;;;;;;;5.80;1.63;;;;;;;11.80;57.85;102103.22;5027765;28;20025;-77
2023/06/02 07:06:58;;;;;;;6.47;1.63;;;;;;;11.83;57.90;102099.72;5027185;28;20217;-78
2023/06/02 07:09:23;;;;;;;4.55;1.48;;;;;;;11.90;57.91;102101.41;5028430;28;20381;-77
2023/06/02 07:11:48;;;;;;;8.60;2.08;;;;;;;11.99;58.62;102106.53;5025750;28;20021;-77
2023/06/02 07:14:13;;;;;;;6.05;1.48;;;;;;;12.07;57.38;102114.25;5028632;28;20048;-78
2023/06/02 07:16:39;;;;;;;4.95;1.50;;;;;;;12.15;57.83;102111.56;5031524;28;20029;-78
2023/06/02 07:19:04;;;;;;;7.57;1.50;;;;;;;12.13;56.59;102110.72;5030284;28;20784;-78
2023/06/02 07:21:29;;;;;;;6.78;1.60;;;;;;;12.13;57.17;102110.72;5030646;28;20061;-78
2023/06/02 07:23:55;;;;;;;7.75;1.80;;;;;;;12.15;57.63;102111.56;5024950;28;20504;-78
2023/06/02 07:26:21;;;;;;;6.88;1.50;;;;;;;12.20;57.20;102120.19;5027649;28;20033;-78
2023/06/02 07:28:46;;;;;;;5.80;1.42;;;;;;;12.24;57.38;102123.63;5029776;28;20040;-78
2023/06/02 07:31:11;;;;;;;8.05;1.70;;;;;;;12.29;57.05;102125.31;5030015;28;20044;-77
2023/06/02 07:33:37;;;;;;;7.97;1.42;;;;;;;12.34;56.89;102132.22;5028291;28;20066;-77
2023/06/02 07:36:02;;;;;;;6.25;2.10;;;;;;;12.34;55.95;102129.59;5026529;28;20033;-78
2023/06/02 07:38:27;;;;;;;5.13;1.55;;;;;;;12.33;56.22;102131.38;5029582;28;20044;-78
2023/06/02 07:40:53;;;;;;;6.93;1.60;;;;;;;12.39;56.76;102130.41;5028059;28;20022;-77
2023/06/02 07:43:18;;;;;;;6.07;1.63;;;;;;;12.45;57.14;102122.53;5026345;28;20040;-77
2023/06/02 07:45:43;;;;;;;7.68;1.73;;;;;;;12.52;56.64;102126.75;5029424;28;20091;-78
2023/06/02 07:48:09;;;;;;;6.78;1.50;;;;;;;12.59;55.83;102120.59;5029733;28;20033;-78
2023/06/02 07:50:34;;;;;;;8.77;1.50;;;;;;;12.65;55.86;102121.38;5029575;28;20026;-77
2023/06/02 07:52:59;;;;;;;5.00;1.50;;;;;;;12.70;56.71;102119.56;5025727;28;20053;-77
2023/06/02 07:55:25;;;;;;;6.28;1.45;;;;;;;12.77;55.52;102113.38;5027595;28;20608;-77
2023/06/02 07:57:51;;;;;;;6.30;1.50;;;;;;;12.81;56.07;102116.81;5027442;28;20032;-76
2023/06/02 08:00:19;;;;;;;7.50;1.45;;;;;;;12.79;55.28;102118.56;5026146;28;20033;-77
2023/06/02 08:02:46;;;;;;;8.43;1.40;;;;;;;12.82;54.81;102111.53;5024309;28;20040;-78
2023/06/02 08:05:12;;;;;;;10.45;1.40;;;;;;;12.86;55.62;102113.22;5028337;28;20068;-77
2023/06/02 08:07:38;;;;;;;8.18;1.70;;;;;;;12.88;54.97;102124.53;5026666;28;20021;-77
2023/06/02 08:10:04;;;;;;;5.53;1.42;;;;;;;12.88;53.76;102114.06;5025910;28;20021;-77
2023/06/02 08:12:29;;;;;;;5.28;1.60;;;;;;;12.87;55.04;102112.34;5024609;28;20468;-78
2023/06/02 08:14:54;;;;;;;7.88;1.48;;;;;;;12.92;54.36;102114.03;5024502;28;20025;-77
2023/06/02 08:17:19;;;;;;;6.22;1.60;;;;;;;12.98;55.96;102109.56;5026361;28;20626;-77
2023/06/02 08:19:45;;;;;;;5.53;1.45;;;;;;;13.09;56.85;102112.03;5018819;28;20025;-77
2023/06/02 08:22:11;;;;;;;5.13;1.50;;;;;;;13.21;56.21;102101.38;5026366;28;20017;-78
2023/06/02 08:24:36;;;;;;;5.20;1.40;;;;;;;13.27;53.75;102105.63;5026710;28;20022;-78
2023/06/02 08:27:03;;;;;;;7.28;1.63;;;;;;;13.29;54.12;102109.06;5025356;28;20448;-77
2023/06/02 08:29:30;;;;;;;7.68;1.40;;;;;;;13.36;55.46;102112.44;5021779;28;20519;-76
2023/06/02 08:31:55;;;;;;;6.70;1.40;;;;;;;13.43;53.64;102115.84;5026051;28;20422;-79
2023/06/02 08:34:21;;;;;;;4.55;1.50;;;;;;;13.53;53.08;102116.56;5022546;28;20033;-79
2023/06/02 08:36:50;;;;;;;7.40;1.60;;;;;;;13.66;54.07;102115.47;5025391;28;20033;-78
2023/06/02 08:39:15;;;;;;;7.22;2.08;;;;;;;13.79;53.10;102116.06;5026541;28;20021;-78
2023/06/02 08:41:45;;;;;;;5.30;1.50;;;;;;;13.83;53.03;102114.28;5037900;28;20029;-77
2023/06/02 08:44:10;;;;;;;4.72;1.40;;;;;;;13.83;52.37;102111.66;5022918;28;20037;-77
2023/06/02 08:46:35;;;;;;;6.68;1.50;;;;;;;13.85;52.19;102115.97;5024661;28;20018;-77
2023/06/02 08:49:01;;;;;;;7.50;1.67;;;;;;;13.88;52.16;102107.19;5025372;28;20025;-77
2023/06/02 08:51:26;;;;;;;6.50;1.60;;;;;;;13.87;52.49;102103.72;5023917;28;20021;-77
2023/06/02 08:53:51;;;;;;;6.05;1.65;;;;;;;13.87;52.10;102105.47;5021852;28;20037;-77
2023/06/02 08:56:17;;;;;;;7.40;1.65;;;;;;;13.81;52.31;102109.94;5024403;28;20049;-78
2023/06/02 08:58:45;;;;;;;5.35;1.50;;;;;;;13.77;53.01;102104.78;5026059;28;20025;-77
2023/06/02 09:01:10;;;;;;;6.15;1.58;;;;;;;13.81;53.51;102109.94;5023912;28;20024;-76
2023/06/02 09:03:36;;;;;;;7.72;1.77;;;;;;;13.84;52.30;102111.63;5025696;28;20025;-78
2023/06/02 09:06:16;;;;;;;8.73;1.48;;;;;;;13.89;52.79;102107.19;5023697;28;20030;-77
2023/06/02 09:09:00;;;;;;;5.82;1.70;;;;;;;13.90;53.08;102108.03;5026174;28;20048;-77
2023/06/02 09:11:27;;;;;;;6.22;1.35;;;;;;;13.92;52.12;102106.25;5026162;28;20033;-78
2023/06/02 09:13:53;;;;;;;6.22;2.08;;;;;;;13.99;52.42;102102.63;5024823;28;20021;-77
2023/06/02 09:16:23;;;;;;;6.38;1.95;;;;;;;14.06;52.68;102106.84;5026966;28;20060;-77
2023/06/02 09:18:56;;;;;;;6.85;1.80;;;;;;;14.19;52.52;102101.34;5026459;28;20029;-77
2023/06/02 09:21:32;;;;;;;5.88;1.60;;;;;;;14.33;53.89;102104.56;5024802;28;20571;-77
2023/06/02 09:23:58;;;;;;;7.82;1.55;;;;;;;14.49;54.17;102101.59;5027963;28;20020;-78
2023/06/02 09:26:26;;;;;;;5.82;1.40;;;;;;;14.57;52.50;102110.13;5029853;28;20025;-78
2023/06/02 09:29:02;;;;;;;7.43;1.83;;;;;;;14.66;53.04;102104.72;5029507;28;20029;-78
2023/06/02 09:31:41;;;;;;;8.25;1.85;;;;;;;14.68;51.32;102107.31;5025876;28;20104;-77
2023/06/02 09:34:06;;;;;;;5.28;1.52;;;;;;;14.65;51.70;102102.09;5025212;28;20026;-77
2023/06/02 09:36:31;;;;;;;7.13;1.98;;;;;;;14.68;52.41;102097.72;5025478;28;20436;-77
2023/06/02 09:38:57;;;;;;;9.90;1.60;;;;;;;14.76;52.75;102091.41;5027066;28;20033;-78
2023/06/02 09:41:22;;;;;;;5.03;1.80;;;;;;;14.77;51.87;102101.00;5025197;28;20036;-78
2023/06/02 09:43:48;;;;;;;5.10;1.60;;;;;;;14.79;53.12;102097.44;5027786;28;20030;-77
2023/06/02 09:46:14;;;;;;;6.32;1.48;;;;;;;14.85;52.70;102099.09;5025778;28;20025;-78
2023/06/02 09:48:54;;;;;;;5.57;1.60;;;;;;;14.94;52.87;102100.63;5025013;28;20026;-78
2023/06/02 09:51:25;;;;;;;5.65;1.50;;;;;;;14.97;51.23;102101.41;5026955;28;20092;-77
2023/06/02 09:53:50;;;;;;;5.68;1.40;;;;;;;14.94;52.21;102098.84;5022725;28;20397;-78
2023/06/02 09:56:18;;;;;;;5.10;1.67;;;;;;;14.92;52.25;102098.03;5027403;28;20074;-78
2023/06/02 09:58:44;;;;;;;6.60;1.85;;;;;;;14.95;52.38;102097.06;5030523;28;20033;-79
2023/06/02 10:01:15;;;;;;;5.85;1.70;;;;;;;14.96;51.84;102098.81;5027491;28;20428;-79
2023/06/02 10:03:44;;;;;;;8.50;2.00;;;;;;;14.95;52.23;102100.56;5028816;28;20064;-78
2023/06/02 10:06:20;;;;;;;6.95;1.73;;;;;;;14.99;52.90;102103.97;5025638;28;20052;-78
2023/06/02 10:09:01;;;;;;;8.77;2.08;;;;;;;15.02;52.74;102106.53;5027535;28;20112;-79
2023/06/02 10:11:39;;;;;;;10.27;2.20;;;;;;;15.09;52.62;102104.63;5030753;28;20025;-79
2023/06/02 10:14:55;;;;;;;6.97;1.83;;;;;;;15.16;52.50;102103.56;5027248;28;20485;-78
2023/06/02 10:17:48;;;;;;;6.53;1.70;;;;;;;15.19;52.91;102095.66;5008829;28;20038;-79
2023/06/02 10:20:31;;;;;;;7.53;1.88;;;;;;;15.23;52.76;102104.28;5030665;28;20060;-78
2023/06/02 10:22:59;;;;;;;7.70;2.30;;;;;;;15.27;52.50;102098.06;5028324;28;20436;-77
2023/06/02 10:25:53;;;;;;;6.07;1.80;;;;;;;15.29;53.35;102094.50;5030717;28;20033;-77
2023/06/02 10:28:20;;;;;;;6.88;1.73;;;;;;;15.31;54.42;102090.09;4999728;28;20131;-79
2023/06/02 10:30:46;;;;;;;6.50;1.88;;;;;;;15.38;53.00;102089.91;5031243;28;20025;-79
2023/06/02 10:33:11;;;;;;;8.55;1.83;;;;;;;15.46;54.41;102087.97;5033554;28;20036;-79
2023/06/02 10:35:57;;;;;;;5.50;1.88;;;;;;;15.54;53.43;102093.84;5031364;28;20029;-78
2023/06/02 10:38:25;;;;;;;5.20;2.00;;;;;;;15.57;52.53;102101.63;5028482;28;20029;-79
2023/06/02 10:40:52;;;;;;;7.38;1.63;;;;;;;15.59;53.99;102093.75;5030153;28;20178;-79
2023/06/02 10:43:17;;;;;;;7.78;2.13;;;;;;;15.65;53.04;102098.81;5029900;28;20120;-78
2023/06/02 10:45:43;;;;;;;6.63;2.17;;;;;;;15.71;53.63;102090.78;5031403;28;20544;-78
2023/06/02 10:48:40;;;;;;;7.00;1.63;;;;;;;15.80;52.97;102087.03;5030861;28;20056;-79
2023/06/02 10:51:07;;;;;;;5.57;1.80;;;;;;;15.79;51.83;102090.56;5026755;28;21218;-78
2023/06/02 10:53:32;;;;;;;6.18;1.45;;;;;;;15.83;52.97;102091.34;5026596;28;20547;-77
2023/06/02 10:56:36;;;;;;;4.65;1.75;;;;;;;15.88;52.37;102085.13;5027765;28;20041;-77
2023/06/02 10:59:02;;;;;;;5.30;1.75;;;;;;;15.88;53.25;102085.13;5027712;28;20518;-78
2023/06/02 11:01:47;;;;;;;5.68;1.95;;;;;;;15.85;52.27;102092.16;5029634;28;20029;-79
2023/06/02 11:04:34;;;;;;;6.60;2.00;;;;;;;15.86;52.51;102096.53;5032528;28;20443;-79
2023/06/02 11:07:15;;;;;;;6.30;1.80;;;;;;;15.83;51.89;102092.22;5032659;28;20059;-78
2023/06/02 11:09:43;;;;;;;7.85;1.80;;;;;;;15.85;52.07;102093.06;5029512;28;20127;-79
2023/06/02 11:12:09;;;;;;;5.47;1.90;;;;;;;15.87;52.38;102087.75;5025669;28;20112;-78
2023/06/02 11:15:00;;;;;;;5.30;2.13;;;;;;;15.92;52.63;102089.34;5027680;28;20044;-78
2023/06/02 11:17:33;;;;;;;7.43;1.83;;;;;;;16.00;52.19;102091.75;5026018;28;20038;-78
2023/06/02 11:19:59;;;;;;;4.70;1.75;;;;;;;16.07;52.65;102090.69;5028704;28;20017;-78
2023/06/02 11:22:27;;;;;;;5.80;2.13;;;;;;;16.11;52.80;102086.19;5029053;28;20032;-78
2023/06/02 11:24:55;;;;;;;6.43;2.10;;;;;;;16.17;52.36;102080.78;5027457;28;20545;-78